Time;durP1;ratioP1;P1;durP2;ratioP2;P2;SDS_P1;SDS_P2;PMS_P1;PMS_P2;Temp;Humidity;BMP_temperature;BMP_pressure;BME280_temperature;BME280_humidity;BME280_pressure;Samples;Min_cycle;Max_cycle;Signal;HPM_P1;HPM_P2
2022/05/29 00:01:12;;;;;;;4.63;2.30;;;12.10;1.00;;;;;;5048923;28;20456;-55
2022/05/29 00:03:38;;;;;;;3.60;2.37;;;12.10;1.00;;;;;;5048907;28;20940;-55
2022/05/29 00:06:12;;;;;;;4.33;2.33;;;12.10;1.00;;;;;;5046999;28;20522;-54
2022/05/29 00:08:40;;;;;;;7.23;2.57;;;11.90;1.00;;;;;;5048562;28;20191;-55
2022/05/29 00:11:13;;;;;;;7.37;2.87;;;11.90;1.00;;;;;;5048227;28;21006;-55
2022/05/29 00:13:40;;;;;;;4.43;2.40;;;11.80;1.00;;;;;;5046678;28;20442;-54
2022/05/29 00:16:09;;;;;;;2.90;2.40;;;11.80;1.00;;;;;;5045186;28;20458;-52
2022/05/29 00:18:37;;;;;;;5.07;2.30;;;11.80;1.00;;;;;;5048690;28;20803;-54
2022/05/29 00:21:32;;;;;;;6.27;3.00;;;11.70;1.00;;;;;;5041910;28;22292;-54
2022/05/29 00:23:57;;;;;;;3.73;1.93;;;11.70;1.00;;;;;;5041236;28;20454;-53
2022/05/29 00:26:23;;;;;;;6.87;2.50;;;11.60;1.00;;;;;;5047844;28;20452;-55
2022/05/29 00:28:48;;;;;;;2.87;2.20;;;11.70;1.00;;;;;;5050366;28;20200;-55
2022/05/29 00:31:14;;;;;;;4.60;2.47;;;11.60;1.00;;;;;;5051131;28;20265;-56
2022/05/29 00:33:40;;;;;;;3.30;2.40;;;11.50;1.00;;;;;;5047686;28;20755;-52
2022/05/29 00:36:32;;;;;;;3.00;2.00;;;11.70;1.00;;;;;;5051516;28;20267;-56
2022/05/29 00:38:58;;;;;;;7.70;2.07;;;11.70;1.00;;;;;;5049728;28;20823;-54
2022/05/29 00:41:29;;;;;;;5.13;2.30;;;11.50;1.00;;;;;;5052758;28;20442;-55
2022/05/29 00:44:18;;;;;;;4.07;2.30;;;11.50;1.00;;;;;;5048636;28;20271;-55
2022/05/29 00:46:45;;;;;;;6.93;2.47;;;11.40;1.00;;;;;;5049786;28;20506;-54
2022/05/29 00:49:12;;;;;;;5.43;2.40;;;11.40;1.00;;;;;;5046752;28;20497;-55
2022/05/29 00:52:01;;;;;;;5.03;2.33;;;11.40;1.00;;;;;;5055161;28;20991;-55
2022/05/29 00:54:30;;;;;;;6.67;2.53;;;11.40;1.00;;;;;;5047519;28;20488;-57
2022/05/29 00:56:57;;;;;;;3.20;2.57;;;11.50;1.00;;;;;;5049891;28;21012;-53
2022/05/29 00:59:27;;;;;;;10.47;2.53;;;11.40;1.00;;;;;;5046476;28;20449;-56
2022/05/29 01:01:55;;;;;;;6.30;2.30;;;11.40;1.00;;;;;;5045434;28;20421;-55
2022/05/29 01:04:21;;;;;;;8.87;2.43;;;11.40;1.00;;;;;;5047430;28;20457;-54
2022/05/29 01:06:48;;;;;;;4.80;2.13;;;11.40;1.00;;;;;;5047389;28;20454;-56
2022/05/29 01:09:15;;;;;;;6.17;2.80;;;11.40;1.00;;;;;;5047923;28;20449;-55
2022/05/29 01:11:57;;;;;;;5.03;2.10;;;11.40;1.00;;;;;;5054327;28;20623;-53
2022/05/29 01:14:46;;;;;;;6.33;2.60;;;11.30;1.00;;;;;;5045552;28;20446;-55
2022/05/29 01:17:33;;;;;;;7.67;2.27;;;11.40;1.00;;;;;;5049423;28;20447;-54
2022/05/29 01:20:08;;;;;;;3.40;2.33;;;11.40;1.00;;;;;;5047801;28;20442;-53
2022/05/29 01:23:13;;;;;;;5.10;2.07;;;11.40;1.00;;;;;;5046630;28;20492;-57
2022/05/29 01:26:24;;;;;;;6.83;2.60;;;11.10;1.00;;;;;;5039089;28;20446;-54
2022/05/29 01:28:56;;;;;;;3.83;2.20;;;13.50;1.00;;;;;;5040193;28;20485;-55
2022/05/29 01:31:39;;;;;;;8.00;3.30;;;11.00;1.00;;;;;;5041821;28;20462;-54
2022/05/29 01:34:24;;;;;;;6.67;2.57;;;11.10;1.00;;;;;;5044496;28;20453;-57
2022/05/29 01:37:10;;;;;;;3.40;2.00;;;11.10;1.00;;;;;;5047681;28;20450;-53
2022/05/29 01:40:02;;;;;;;5.27;1.97;;;11.10;1.00;;;;;;5047459;28;20482;-55
2022/05/29 01:42:46;;;;;;;2.50;2.00;;;11.00;1.00;;;;;;5041847;28;20446;-54
2022/05/29 01:45:53;;;;;;;5.00;1.90;;;10.90;1.00;;;;;;5046115;28;20476;-55
2022/05/29 01:48:41;;;;;;;4.57;2.70;;;10.90;1.00;;;;;;5045451;28;20461;-54
2022/05/29 01:51:23;;;;;;;4.00;2.50;;;11.00;1.00;;;;;;5048882;28;20520;-54
2022/05/29 01:53:59;;;;;;;3.80;2.20;;;11.00;1.00;;;;;;5056311;28;20877;-53
2022/05/29 01:56:30;;;;;;;4.30;3.20;;;11.00;1.00;;;;;;5052736;28;20533;-54
2022/05/29 01:59:00;;;;;;;4.70;2.43;;;11.00;1.00;;;;;;5053961;28;20770;-55
2022/05/29 02:01:36;;;;;;;6.73;2.10;;;10.90;1.00;;;;;;5060792;28;20450;-54
2022/05/29 02:04:07;;;;;;;8.90;2.50;;;10.80;1.00;;;;;;5049095;28;20871;-55
2022/05/29 02:09:29;;;;;;;4.30;2.47;;;10.70;1.00;;;;;;5052634;28;20453;-53
2022/05/29 02:12:00;;;;;;;3.60;2.67;;;10.70;1.00;;;;;;5053481;28;20823;-55
2022/05/29 02:14:37;;;;;;;7.07;2.60;;;10.80;1.00;;;;;;5050947;28;20442;-53
2022/05/29 02:17:13;;;;;;;5.30;2.47;;;10.80;1.00;;;;;;5052332;28;20453;-53
2022/05/29 02:19:45;;;;;;;8.17;2.80;;;10.70;1.00;;;;;;5050918;28;20524;-56
2022/05/29 02:22:25;;;;;;;7.57;2.53;;;10.70;1.00;;;;;;5052665;28;20450;-53
2022/05/29 02:24:55;;;;;;;6.23;2.30;;;10.70;1.00;;;;;;5053482;28;20450;-53
2022/05/29 02:27:26;;;;;;;8.63;3.20;;;10.70;1.00;;;;;;5053177;28;20508;-55
2022/05/29 02:29:54;;;;;;;3.00;2.10;;;10.70;1.00;;;;;;5051930;28;20475;-55
2022/05/29 02:33:01;;;;;;;6.70;2.60;;;10.70;1.00;;;;;;5054033;28;21012;-54
2022/05/29 02:36:41;;;;;;;8.80;2.77;;;10.70;1.00;;;;;;5050908;28;21006;-56
2022/05/29 02:39:25;;;;;;;5.43;2.50;;;10.70;1.00;;;;;;5053195;28;20445;-55
2022/05/29 02:41:51;;;;;;;5.93;2.17;;;;;;;;;;5051115;28;20457;-56
2022/05/29 02:44:40;;;;;;;5.23;1.90;;;10.60;1.00;;;;;;5053478;28;20450;-55
2022/05/29 02:47:43;;;;;;;4.37;2.10;;;10.50;1.00;;;;;;5041960;28;20511;-55
2022/05/29 02:50:34;;;;;;;6.80;2.40;;;10.60;1.00;;;;;;5054064;28;20482;-54
2022/05/29 02:53:06;;;;;;;5.13;2.40;;;10.40;1.00;;;;;;5052237;28;20430;-54
2022/05/29 02:55:32;;;;;;;2.40;2.03;;;10.40;1.00;;;;;;5055372;28;20454;-55
2022/05/29 02:58:03;;;;;;;4.83;1.90;;;10.50;1.00;;;;;;5056569;28;20465;-55
2022/05/29 03:00:42;;;;;;;6.80;2.30;;;10.40;1.00;;;;;;5056797;28;20184;-54
2022/05/29 03:03:28;;;;;;;3.20;2.23;;;10.40;1.00;;;;;;5052061;28;20461;-52
2022/05/29 03:06:31;;;;;;;9.53;2.77;;;10.50;1.00;;;;;;5050972;28;20943;-55
2022/05/29 03:09:15;;;;;;;3.13;1.77;;;10.50;1.00;;;;;;5050784;28;20504;-54
2022/05/29 03:11:44;;;;;;;3.23;2.20;;;10.40;1.00;;;;;;5044332;28;20564;-55
2022/05/29 03:14:16;;;;;;;6.03;2.80;;;10.40;1.00;;;;;;5049193;28;20508;-56
2022/05/29 03:17:11;;;;;;;4.90;2.17;;;10.30;1.00;;;;;;5049649;28;20450;-54
2022/05/29 03:20:10;;;;;;;2.20;1.80;;;10.30;1.00;;;;;;5050441;28;20446;-53
2022/05/29 03:22:51;;;;;;;6.23;2.40;;;10.30;1.00;;;;;;5045423;28;20442;-55
2022/05/29 03:25:33;;;;;;;4.00;1.70;;;10.30;1.00;;;;;;5049223;28;20927;-54
2022/05/29 03:28:00;;;;;;;3.10;2.20;;;10.60;1.00;;;;;;5052196;28;20810;-54
2022/05/29 03:30:36;;;;;;;5.20;1.57;;;10.60;1.00;;;;;;5049561;28;20537;-55
2022/05/29 03:33:06;;;;;;;4.10;2.20;;;10.70;1.00;;;;;;5049122;28;20454;-54
2022/05/29 03:35:43;;;;;;;5.50;2.03;;;11.10;1.00;;;;;;5050687;28;20446;-53
2022/05/29 03:38:09;;;;;;;3.83;2.27;;;11.20;1.00;;;;;;5048229;28;20473;-55
2022/05/29 03:40:34;;;;;;;2.17;1.80;;;11.60;1.00;;;;;;5048141;28;20446;-56
2022/05/29 03:43:00;;;;;;;9.70;1.90;;;11.70;1.00;;;;;;5044425;28;20207;-56
2022/05/29 03:45:26;;;;;;;4.80;1.80;;;;;;;;;;5048473;28;20245;-55
2022/05/29 03:47:52;;;;;;;3.10;2.30;;;11.50;1.00;;;;;;5050593;28;20194;-56
2022/05/29 03:50:20;;;;;;;3.70;1.50;;;11.30;1.00;;;;;;5052847;28;20478;-55
2022/05/29 03:52:46;;;;;;;3.20;1.90;;;11.30;1.00;;;;;;5047189;28;20482;-56
2022/05/29 03:55:14;;;;;;;4.33;2.10;;;11.00;1.00;;;;;;5049160;28;20487;-53
2022/05/29 03:57:40;;;;;;;3.10;1.90;;;11.00;1.00;;;;;;5049095;28;20426;-54
2022/05/29 04:00:08;;;;;;;3.43;2.00;;;11.00;1.00;;;;;;5049443;28;20449;-56
2022/05/29 04:02:33;;;;;;;3.50;1.87;;;11.00;1.00;;;;;;5051823;28;20200;-54
2022/05/29 04:04:59;;;;;;;5.50;2.37;;;11.00;1.00;;;;;;5048239;28;20453;-56
2022/05/29 04:12:03;;;;;;;3.10;1.63;;;11.00;1.00;;;;;;5053957;28;20180;-54
2022/05/29 04:12:57;;;;;;;4.33;2.70;;;10.90;1.00;;;;;;5048841;28;20457;-54
2022/05/29 04:15:22;;;;;;;4.47;2.37;;;10.90;1.00;;;;;;5053211;28;20447;-53
2022/05/29 04:17:48;;;;;;;2.60;2.13;;;11.10;1.00;;;;;;5048434;28;20497;-55
2022/05/29 04:20:14;;;;;;;2.30;1.80;;;11.10;1.00;;;;;;5046156;28;20263;-55
2022/05/29 04:22:39;;;;;;;8.57;3.17;;;11.10;1.00;;;;;;5044189;28;20193;-54
2022/05/29 04:25:06;;;;;;;5.60;2.30;;;11.10;1.00;;;;;;5050763;28;20188;-53
2022/05/29 04:27:31;;;;;;;4.67;2.67;;;11.10;1.00;;;;;;5045637;28;20265;-56
2022/05/29 04:29:57;;;;;;;3.40;2.20;;;11.20;1.00;;;;;;5048594;28;20478;-57
2022/05/29 04:35:07;;;;;;;2.40;2.20;;;11.30;1.00;;;;;;5046031;28;20267;-56
2022/05/29 04:37:33;;;;;;;3.10;2.20;;;11.30;1.00;;;;;;5047644;28;20529;-54
2022/05/29 04:39:58;;;;;;;3.70;2.67;;;11.30;1.00;;;;;;5049217;28;20446;-53
2022/05/29 04:42:24;;;;;;;5.83;2.07;;;11.30;1.00;;;;;;5047844;28;20281;-54
2022/05/29 04:44:49;;;;;;;3.40;2.43;;;11.40;1.00;;;;;;5047208;28;20196;-55
2022/05/29 04:47:15;;;;;;;7.10;2.03;;;11.40;1.00;;;;;;5048311;28;20235;-54
2022/05/29 04:49:41;;;;;;;3.83;2.23;;;11.40;1.00;;;;;;5048068;28;20192;-54
2022/05/29 04:52:08;;;;;;;5.73;2.30;;;11.50;1.00;;;;;;5046983;28;20188;-55
2022/05/29 04:54:40;;;;;;;3.43;1.97;;;11.50;1.00;;;;;;5046130;28;20630;-56
2022/05/29 04:57:07;;;;;;;5.63;2.50;;;11.60;1.00;;;;;;5051558;28;20438;-55
2022/05/29 04:59:34;;;;;;;4.23;2.20;;;13.20;1.00;;;;;;5045089;28;20503;-54
2022/05/29 05:02:02;;;;;;;3.73;2.40;;;11.80;1.00;;;;;;5045118;28;20447;-56
2022/05/29 05:04:28;;;;;;;2.50;1.97;;;11.70;1.00;;;;;;5048248;28;20541;-55
2022/05/29 05:06:55;;;;;;;2.70;2.20;;;11.90;1.00;;;;;;5047977;28;20545;-53
2022/05/29 05:09:21;;;;;;;4.33;1.90;;;12.10;1.00;;;;;;5047376;28;20458;-54
2022/05/29 05:11:47;;;;;;;4.10;2.40;;;12.10;1.00;;;;;;5048018;28;20480;-54
2022/05/29 05:14:12;;;;;;;3.87;2.13;;;12.20;1.00;;;;;;5049240;28;20218;-56
2022/05/29 05:16:38;;;;;;;3.10;1.90;;;12.40;1.00;;;;;;5043690;28;20201;-55
2022/05/29 05:19:03;;;;;;;6.40;2.27;;;12.60;1.00;;;;;;5046564;28;20184;-54
2022/05/29 05:21:29;;;;;;;6.30;3.10;;;12.70;1.00;;;;;;5045350;28;20192;-56
2022/05/29 05:23:54;;;;;;;4.83;2.40;;;12.70;1.00;;;;;;5044948;28;20184;-56
2022/05/29 05:26:20;;;;;;;4.07;2.20;;;12.80;1.00;;;;;;5046485;28;20228;-54
2022/05/29 05:28:46;;;;;;;7.03;2.57;;;12.90;1.00;;;;;;5048813;28;20283;-54
2022/05/29 05:31:11;;;;;;;6.20;2.23;;;12.90;1.00;;;;;;5048236;28;20556;-56
2022/05/29 05:33:37;;;;;;;4.63;1.73;;;13.00;1.00;;;;;;5043061;28;20188;-53
2022/05/29 05:36:03;;;;;;;6.00;1.90;;;13.00;1.00;;;;;;5049385;28;20279;-54
2022/05/29 05:38:30;;;;;;;4.00;1.70;;;13.30;1.00;;;;;;5052432;28;20219;-55
2022/05/29 05:40:56;;;;;;;5.17;1.50;;;13.30;1.00;;;;;;5051702;28;20200;-55
2022/05/29 05:43:22;;;;;;;3.13;1.60;;;13.30;1.00;;;;;;5051540;28;20463;-55
2022/05/29 05:45:48;;;;;;;5.43;2.00;;;13.40;1.00;;;;;;5044387;28;20230;-54
2022/05/29 05:48:15;;;;;;;6.80;2.00;;;;;;;;;;5046159;28;20196;-55
2022/05/29 05:50:40;;;;;;;3.83;1.60;;;13.70;1.00;;;;;;5050503;28;20473;-55
2022/05/29 05:53:06;;;;;;;2.10;1.30;;;13.70;1.00;;;;;;5047214;28;20446;-54
2022/05/29 05:55:32;;;;;;;4.87;2.17;;;13.70;1.00;;;;;;5054296;28;20217;-54
2022/05/29 05:57:58;;;;;;;5.83;2.10;;;;;;;;;;5054683;28;20285;-55
2022/05/29 06:00:23;;;;;;;6.03;2.10;;;13.90;1.00;;;;;;5047144;28;20195;-56
2022/05/29 06:02:49;;;;;;;3.57;1.63;;;14.00;1.00;;;;;;5047537;28;20505;-53
2022/05/29 06:05:15;;;;;;;4.77;2.03;;;14.00;1.00;;;;;;5046358;28;20198;-55
2022/05/29 06:07:41;;;;;;;4.20;1.70;;;14.00;1.00;;;;;;5048170;28;20195;-55
2022/05/29 06:10:08;;;;;;;3.07;1.40;;;13.60;1.00;;;;;;5047495;28;20485;-55
2022/05/29 06:12:34;;;;;;;5.07;2.03;;;14.00;1.00;;;;;;5045979;28;20191;-56
2022/05/29 06:14:59;;;;;;;5.93;1.63;;;14.00;1.00;;;;;;5046943;28;20447;-53
2022/05/29 06:17:27;;;;;;;4.57;1.47;;;14.40;1.00;;;;;;5045403;28;20673;-55
2022/05/29 06:19:52;;;;;;;3.67;1.47;;;14.40;1.00;;;;;;5052161;28;20234;-53
2022/05/29 06:22:18;;;;;;;3.10;1.33;;;14.60;1.00;;;;;;5053592;28;20434;-55
2022/05/29 06:24:44;;;;;;;4.93;1.50;;;14.60;1.00;;;;;;5043246;28;20271;-56
2022/05/29 06:27:09;;;;;;;4.00;1.37;;;14.80;1.00;;;;;;5047953;28;20584;-56
2022/05/29 06:29:36;;;;;;;8.03;1.63;;;14.80;1.00;;;;;;5046937;28;20451;-56
2022/05/29 06:32:04;;;;;;;4.60;1.83;;;14.70;1.00;;;;;;5046799;28;20222;-54
2022/05/29 06:34:31;;;;;;;1.63;1.20;;;14.70;1.00;;;;;;5043704;28;20474;-54
2022/05/29 06:36:57;;;;;;;4.07;1.60;;;14.90;1.00;;;;;;5048054;28;20457;-53
2022/05/29 06:39:23;;;;;;;5.50;2.30;;;;;;;;;;5051255;28;21111;-53
2022/05/29 06:41:49;;;;;;;5.47;1.73;;;14.90;1.00;;;;;;5049119;28;20626;-56
2022/05/29 06:44:14;;;;;;;7.53;1.30;;;14.90;1.00;;;;;;5050765;28;20465;-54
2022/05/29 06:46:40;;;;;;;3.70;1.70;;;15.20;1.00;;;;;;5052999;28;20927;-52
2022/05/29 06:49:06;;;;;;;3.80;1.63;;;15.00;1.00;;;;;;5048060;28;20531;-56
2022/05/29 06:51:32;;;;;;;2.40;1.30;;;14.80;1.00;;;;;;5056728;28;20720;-56
2022/05/29 06:53:59;;;;;;;2.07;1.37;;;14.80;1.00;;;;;;5057847;28;20242;-57
2022/05/29 06:56:25;;;;;;;3.07;1.40;;;15.10;1.00;;;;;;5052220;28;20795;-55
2022/05/29 06:58:51;;;;;;;4.47;1.50;;;15.10;1.00;;;;;;5051308;28;20446;-54
2022/05/29 07:07:00;;;;;;;2.60;1.17;;;15.30;1.00;;;;;;5049294;28;20458;-54
2022/05/29 07:09:26;;;;;;;4.83;1.57;;;15.40;1.00;;;;;;5054432;28;20823;-55
2022/05/29 07:11:59;;;;;;;2.47;1.70;;;15.90;1.00;;;;;;5054043;28;20978;-54
2022/05/29 07:14:25;;;;;;;5.30;1.60;;;15.90;1.00;;;;;;5051220;28;20445;-55
2022/05/29 07:16:50;;;;;;;3.60;1.47;;;15.90;1.00;;;;;;5057263;28;20442;-55
2022/05/29 07:19:20;;;;;;;4.37;1.43;;;16.10;1.00;;;;;;5049873;28;20267;-55
2022/05/29 07:21:46;;;;;;;3.50;1.50;;;16.10;1.00;;;;;;5045192;28;20634;-53
2022/05/29 07:24:12;;;;;;;5.10;2.00;;;16.00;1.00;;;;;;5046648;28;20450;-54
2022/05/29 07:26:39;;;;;;;5.50;1.70;;;16.00;1.00;;;;;;5052501;28;20441;-54
2022/05/29 07:29:04;;;;;;;7.93;1.40;;;16.00;1.00;;;;;;5049679;28;20188;-56
2022/05/29 07:31:30;;;;;;;4.07;1.77;;;15.90;1.00;;;;;;5045731;28;20481;-54
2022/05/29 07:33:57;;;;;;;3.70;1.50;;;16.20;1.00;;;;;;5047565;28;20278;-55
2022/05/29 07:36:26;;;;;;;6.07;2.00;;;16.30;1.00;;;;;;5050397;28;20438;-55
2022/05/29 07:38:52;;;;;;;3.10;1.40;;;16.10;1.00;;;;;;5050484;28;21184;-53
2022/05/29 07:44:08;;;;;;;3.93;1.13;;;16.40;1.00;;;;;;5050745;28;20476;-56
2022/05/29 07:46:33;;;;;;;3.73;1.10;;;16.30;1.00;;;;;;5047669;28;20995;-54
2022/05/29 07:48:59;;;;;;;4.30;1.60;;;16.00;1.00;;;;;;5049976;28;20236;-55
2022/05/29 07:51:30;;;;;;;2.93;1.47;;;15.70;1.00;;;;;;5048424;28;20196;-56
2022/05/29 07:53:57;;;;;;;2.00;1.13;;;15.80;1.00;;;;;;5049438;28;20183;-54
2022/05/29 07:56:25;;;;;;;4.73;1.80;;;15.80;1.00;;;;;;5050001;28;20442;-55
2022/05/29 07:58:51;;;;;;;4.83;1.70;;;16.20;1.00;;;;;;5049507;28;20474;-53
2022/05/29 08:01:29;;;;;;;3.83;1.30;;;16.80;1.00;;;;;;5049713;28;20943;-53
2022/05/29 08:03:55;;;;;;;5.80;1.43;;;16.90;1.00;;;;;;5031867;28;20285;-53
2022/05/29 08:06:26;;;;;;;3.00;1.30;;;16.90;1.00;;;;;;5047873;28;20454;-54
2022/05/29 08:08:52;;;;;;;4.20;1.20;;;17.00;1.00;;;;;;5048475;28;20196;-53
2022/05/29 08:11:27;;;;;;;2.27;1.63;;;17.10;1.00;;;;;;5049883;28;20478;-54
2022/05/29 08:13:54;;;;;;;1.60;1.10;;;17.70;1.00;;;;;;5048977;28;20583;-53
2022/05/29 08:16:25;;;;;;;2.10;1.27;;;17.70;1.00;;;;;;5049166;28;20438;-56
2022/05/29 08:18:53;;;;;;;1.93;1.07;;;18.20;1.00;;;;;;5050667;28;20439;-53
2022/05/29 08:21:27;;;;;;;2.40;1.30;;;18.40;1.00;;;;;;5049420;28;20458;-54
2022/05/29 08:32:06;;;;;;;5.30;2.03;;;19.60;1.00;;;;;;5049956;28;20477;-51
2022/05/29 08:34:32;;;;;;;2.20;1.50;;;19.70;1.00;;;;;;5049851;28;20510;-56
2022/05/29 08:36:58;;;;;;;4.30;1.33;;;19.10;1.00;;;;;;5048130;28;20470;-54
2022/05/29 08:39:24;;;;;;;2.40;1.47;;;19.10;1.00;;;;;;5049789;28;20188;-55
2022/05/29 08:41:52;;;;;;;4.27;1.73;;;18.80;1.00;;;;;;5048698;28;20498;-53
2022/05/29 08:44:42;;;;;;;3.37;1.20;;;18.50;1.00;;;;;;5046516;28;20208;-54
2022/05/29 08:47:08;;;;;;;5.00;2.27;;;18.20;1.00;;;;;;5046212;28;20481;-56
2022/05/29 08:49:38;;;;;;;3.27;1.47;;;17.90;1.00;;;;;;5048481;28;20583;-55
2022/05/29 08:52:41;;;;;;;5.27;1.33;;;17.50;1.00;;;;;;5051383;28;20478;-55
2022/05/29 08:55:11;;;;;;;4.00;1.17;;;17.70;1.00;;;;;;5047145;28;20796;-55
2022/05/29 08:58:01;;;;;;;3.87;1.47;;;18.20;1.00;;;;;;5047562;28;20431;-54
2022/05/29 09:01:07;;;;;;;4.63;1.27;;;18.30;1.00;;;;;;5049016;28;20421;-55
2022/05/29 09:04:00;;;;;;;4.60;1.57;;;18.10;1.00;;;;;;5045941;28;20442;-56
2022/05/29 09:06:43;;;;;;;3.10;1.27;;;17.70;1.00;;;;;;5047474;28;20972;-54
2022/05/29 09:09:34;;;;;;;3.50;1.37;;;17.30;1.00;;;;;;5046343;28;20482;-56
2022/05/29 09:12:04;;;;;;;3.23;1.50;;;17.10;1.00;;;;;;5045218;28;20466;-57
2022/05/29 09:14:51;;;;;;;3.77;1.50;;;17.50;1.00;;;;;;5045884;28;20448;-56
2022/05/29 09:17:35;;;;;;;5.10;1.50;;;17.40;1.00;;;;;;5046940;28;20778;-53
2022/05/29 09:20:06;;;;;;;6.00;1.40;;;17.40;1.00;;;;;;5047783;28;21221;-54
2022/05/29 09:22:38;;;;;;;3.30;1.30;;;17.00;1.00;;;;;;5055419;28;21037;-54
2022/05/29 09:25:25;;;;;;;3.30;1.80;;;17.00;1.00;;;;;;5047009;28;20474;-54
2022/05/29 09:27:50;;;;;;;2.67;1.30;;;17.50;1.00;;;;;;5044642;28;20603;-57
2022/05/29 09:30:17;;;;;;;4.27;1.37;;;17.50;1.00;;;;;;5046579;28;20482;-54
2022/05/29 09:32:58;;;;;;;7.20;1.47;;;17.40;1.00;;;;;;5044466;28;20187;-52
2022/05/29 09:35:44;;;;;;;4.87;1.33;;;17.50;1.00;;;;;;5046942;28;20441;-54
2022/05/29 09:38:13;;;;;;;4.73;1.47;;;18.50;1.00;;;;;;5048035;28;20847;-56
2022/05/29 09:40:45;;;;;;;3.50;1.23;;;18.50;1.00;;;;;;5044714;28;20453;-56
2022/05/29 09:43:16;;;;;;;4.50;1.40;;;18.60;1.00;;;;;;5046661;28;20454;-54
2022/05/29 09:45:41;;;;;;;2.87;1.50;;;18.80;1.00;;;;;;5048788;28;21030;-56
2022/05/29 09:51:28;;;;;;;2.30;1.40;;;18.60;1.00;;;;;;5045973;28;20313;-56
2022/05/29 09:54:00;;;;;;;6.17;1.73;;;18.50;1.00;;;;;;5049533;28;20417;-56
2022/05/29 09:56:35;;;;;;;2.70;1.23;;;18.80;1.00;;;;;;5047088;28;20974;-57
2022/05/29 09:59:21;;;;;;;2.27;1.20;;;18.80;1.00;;;;;;5044839;28;20435;-56
2022/05/29 10:01:48;;;;;;;5.23;1.70;;;18.70;1.00;;;;;;5046230;28;20503;-55
2022/05/29 10:04:34;;;;;;;2.67;1.40;;;18.70;1.00;;;;;;5047493;28;20413;-55
2022/05/29 10:07:10;;;;;;;1.93;1.23;;;19.10;1.00;;;;;;5047303;28;20947;-55
2022/05/29 10:09:56;;;;;;;3.40;1.27;;;19.40;1.00;;;;;;5045672;28;20533;-57
2022/05/29 10:12:32;;;;;;;3.47;1.37;;;18.70;1.00;;;;;;5042564;28;20850;-54
2022/05/29 10:14:57;;;;;;;5.43;1.37;;;18.70;1.00;;;;;;5053277;28;20408;-57
2022/05/29 10:17:29;;;;;;;2.40;1.20;;;18.80;1.00;;;;;;5051375;28;20438;-56
2022/05/29 10:19:55;;;;;;;4.00;1.67;;;18.90;1.00;;;;;;5072549;28;20258;-56
2022/05/29 10:22:31;;;;;;;2.10;1.10;;;19.30;1.00;;;;;;5055381;28;20992;-54
2022/05/29 10:24:57;;;;;;;2.20;1.53;;;19.60;1.00;;;;;;5052666;28;20855;-57
2022/05/29 10:27:31;;;;;;;1.80;1.27;;;19.70;1.00;;;;;;5052980;28;20512;-55
2022/05/29 10:30:10;;;;;;;3.00;1.27;;;19.70;1.00;;;;;;5052672;28;20532;-56
2022/05/29 10:32:38;;;;;;;3.97;1.53;;;19.90;1.00;;;;;;5053408;28;20510;-56
2022/05/29 10:35:16;;;;;;;2.60;1.40;;;19.80;1.00;;;;;;5055670;28;20444;-54
2022/05/29 10:37:44;;;;;;;4.37;1.30;;;19.60;1.00;;;;;;5073060;28;20432;-55
2022/05/29 10:40:31;;;;;;;4.17;1.40;;;18.90;1.00;;;;;;5060282;28;20469;-54
2022/05/29 10:43:03;;;;;;;2.57;1.30;;;18.60;1.00;;;;;;5070244;28;20430;-56
2022/05/29 10:46:02;;;;;;;5.10;1.10;;;18.80;1.00;;;;;;5051169;28;20474;-58
2022/05/29 10:49:04;;;;;;;3.20;1.30;;;19.50;1.00;;;;;;5051687;28;20453;-55
2022/05/29 10:52:10;;;;;;;4.80;1.57;;;19.50;1.00;;;;;;5052582;28;20465;-57
2022/05/29 10:54:41;;;;;;;2.93;1.90;;;19.30;1.00;;;;;;5051008;28;20446;-54
2022/05/29 10:57:22;;;;;;;2.70;1.30;;;19.50;1.00;;;;;;5052853;28;20397;-56
2022/05/29 11:00:25;;;;;;;4.03;1.40;;;19.60;1.00;;;;;;5050030;28;20452;-56
2022/05/29 11:03:23;;;;;;;3.20;1.50;;;19.30;1.00;;;;;;5049529;28;20430;-55
2022/05/29 11:06:21;;;;;;;2.60;1.23;;;19.60;1.00;;;;;;5049698;28;20461;-56
2022/05/29 11:08:53;;;;;;;1.50;1.30;;;19.70;1.00;;;;;;5052410;28;20985;-56
2022/05/29 11:11:43;;;;;;;2.63;1.03;;;19.70;1.00;;;;;;5051232;28;20824;-55
2022/05/29 11:14:15;;;;;;;2.40;0.90;;;19.40;1.00;;;;;;5049549;28;20439;-55
2022/05/29 11:16:41;;;;;;;4.87;1.20;;;;;;;;;;5049819;28;20473;-56
2022/05/29 11:19:45;;;;;;;3.30;1.53;;;19.60;1.00;;;;;;5052165;28;20470;-56
2022/05/29 11:22:30;;;;;;;2.40;1.00;;;19.50;1.00;;;;;;5049310;28;20469;-55
2022/05/29 11:25:06;;;;;;;2.50;1.10;;;19.50;1.00;;;;;;5050197;28;20430;-56
2022/05/29 11:28:09;;;;;;;4.60;1.20;;;19.60;1.00;;;;;;5051226;28;20973;-54
2022/05/29 11:31:05;;;;;;;2.33;1.10;;;19.80;1.00;;;;;;5049818;28;20461;-55
2022/05/29 11:33:54;;;;;;;2.33;1.00;;;19.20;1.00;;;;;;5050826;28;20739;-54
2022/05/29 11:36:31;;;;;;;1.43;0.70;;;19.10;1.00;;;;;;5048668;28;20450;-54
2022/05/29 11:39:23;;;;;;;6.07;1.40;;;18.90;1.00;;;;;;5052903;28;21098;-56
2022/05/29 11:41:59;;;;;;;2.40;1.27;;;18.90;1.00;;;;;;5045881;28;20499;-55
2022/05/29 11:44:37;;;;;;;3.73;1.30;;;19.30;1.00;;;;;;5048766;28;20987;-55
2022/05/29 11:53:49;;;;;;;1.37;0.60;;;20.40;1.00;;;;;;5051611;28;20445;-55
2022/05/29 11:56:33;;;;;;;2.57;1.07;;;21.10;1.00;;;;;;5048087;28;20438;-56
2022/05/29 11:59:03;;;;;;;1.83;1.30;;;21.10;1.00;;;;;;5050520;28;20464;-54
2022/05/29 12:01:38;;;;;;;1.30;1.00;;;20.50;1.00;;;;;;5051700;28;20935;-54
2022/05/29 12:04:36;;;;;;;1.60;1.00;;;20.30;1.00;;;;;;5050994;28;20457;-56
2022/05/29 12:07:17;;;;;;;2.40;1.10;;;20.30;1.00;;;;;;5047263;28;20456;-54
2022/05/29 12:09:55;;;;;;;3.67;0.90;;;20.50;1.00;;;;;;5051929;28;20413;-53
2022/05/29 12:12:39;;;;;;;1.47;1.10;;;20.30;1.00;;;;;;5050943;28;20495;-55
2022/05/29 12:15:12;;;;;;;2.17;1.23;;;20.40;1.00;;;;;;5051888;28;20453;-54
2022/05/29 12:18:04;;;;;;;1.93;1.30;;;20.30;1.00;;;;;;5060995;28;20482;-53
2022/05/29 12:20:40;;;;;;;1.27;1.10;;;20.40;1.00;;;;;;5070755;28;20981;-54
2022/05/29 12:23:26;;;;;;;1.90;1.17;;;20.00;1.00;;;;;;5067449;28;20496;-53
2022/05/29 12:26:00;;;;;;;3.87;1.40;;;19.50;1.00;;;;;;5070317;28;20434;-56
2022/05/29 12:28:52;;;;;;;2.63;1.30;;;19.60;1.00;;;;;;5053569;28;20807;-55
2022/05/29 12:31:33;;;;;;;1.60;1.10;;;20.20;1.00;;;;;;5051316;28;20501;-54
2022/05/29 12:33:59;;;;;;;3.10;1.30;;;20.70;1.00;;;;;;5050354;28;20439;-53
2022/05/29 12:36:40;;;;;;;4.83;1.30;;;20.60;1.00;;;;;;5050356;28;21120;-56
2022/05/29 12:39:27;;;;;;;2.10;1.30;;;20.60;1.00;;;;;;5070855;28;20416;-54
2022/05/29 12:42:31;;;;;;;1.60;1.30;;;20.10;1.00;;;;;;5062758;28;20993;-54
2022/05/29 12:45:20;;;;;;;2.20;1.10;;;20.30;1.00;;;;;;5056436;28;20503;-55
2022/05/29 12:48:24;;;;;;;4.37;1.27;;;21.00;1.00;;;;;;5070870;28;20450;-56
2022/05/29 12:51:19;;;;;;;3.47;1.43;;;20.90;1.00;;;;;;5050150;28;20975;-56
2022/05/29 12:53:57;;;;;;;1.20;1.10;;;20.80;1.00;;;;;;5052825;28;20446;-56
2022/05/29 12:56:43;;;;;;;2.17;1.00;;;20.60;1.00;;;;;;5050701;28;20441;-53
2022/05/29 12:59:29;;;;;;;2.70;1.50;;;20.30;1.00;;;;;;5068975;28;20469;-53
2022/05/29 13:02:09;;;;;;;3.20;1.23;;;20.40;1.00;;;;;;5051705;28;20445;-54
2022/05/29 13:04:59;;;;;;;2.30;1.33;;;20.40;1.00;;;;;;5055380;28;20434;-53
2022/05/29 13:07:49;;;;;;;2.97;1.03;;;20.40;1.00;;;;;;5050498;28;20479;-54
2022/05/29 13:10:20;;;;;;;2.77;1.33;;;20.20;1.00;;;;;;5050890;28;20409;-55
2022/05/29 13:13:13;;;;;;;2.40;1.40;;;19.90;1.00;;;;;;5051095;28;20442;-53
2022/05/29 13:15:41;;;;;;;1.67;1.40;;;19.70;1.00;;;;;;5050621;28;20446;-55
2022/05/29 13:21:23;;;;;;;2.70;1.40;;;19.70;1.00;;;;;;5070560;28;20457;-56
2022/05/29 13:23:53;;;;;;;1.50;1.10;;;19.80;1.00;;;;;;5070482;28;21015;-58
2022/05/29 13:26:33;;;;;;;1.90;0.90;;;20.00;1.00;;;;;;5070522;28;20456;-56
2022/05/29 13:29:05;;;;;;;3.00;1.33;;;20.40;1.00;;;;;;5070465;28;20528;-57
2022/05/29 13:31:33;;;;;;;1.57;1.10;;;20.50;1.00;;;;;;5044786;28;20936;-55
2022/05/29 13:34:25;;;;;;;2.27;1.17;;;20.50;1.00;;;;;;5050304;28;20468;-55
2022/05/29 13:36:53;;;;;;;1.43;0.90;;;20.80;1.00;;;;;;5050428;28;20463;-57
2022/05/29 13:39:22;;;;;;;2.60;1.53;;;20.60;1.00;;;;;;5051601;28;20441;-57
2022/05/29 13:42:22;;;;;;;2.50;1.60;;;20.40;1.00;;;;;;5050391;28;20437;-54
2022/05/29 13:44:48;;;;;;;2.90;1.70;;;20.00;1.00;;;;;;5050452;28;20431;-55
2022/05/29 13:47:24;;;;;;;2.20;1.23;;;20.00;1.00;;;;;;5049903;28;20473;-55
2022/05/29 13:50:10;;;;;;;1.77;1.10;;;20.20;1.00;;;;;;5051721;28;20432;-53
2022/05/29 13:52:54;;;;;;;3.77;2.70;;;20.30;1.00;;;;;;5058537;28;20445;-53
2022/05/29 13:55:43;;;;;;;1.53;1.40;;;20.40;1.00;;;;;;5070093;28;20430;-54
2022/05/29 14:04:56;;;;;;;2.20;1.20;;;20.00;1.00;;;;;;5049687;28;20753;-54
2022/05/29 14:07:29;;;;;;;2.60;1.47;;;19.50;1.00;;;;;;5045263;28;20542;-54
2022/05/29 14:10:07;;;;;;;3.40;1.77;;;19.50;1.00;;;;;;5051278;28;20521;-54
2022/05/29 14:12:50;;;;;;;3.40;2.00;;;19.40;1.00;;;;;;5066226;28;20413;-55
2022/05/29 14:15:37;;;;;;;2.67;1.73;;;19.20;1.00;;;;;;5049268;28;20424;-55
2022/05/29 14:18:17;;;;;;;1.23;1.13;;;19.10;1.00;;;;;;5049789;28;20441;-55
2022/05/29 14:20:52;;;;;;;2.50;1.50;;;19.00;1.00;;;;;;5049020;28;20440;-54
2022/05/29 14:23:58;;;;;;;1.93;1.40;;;18.90;1.00;;;;;;5056643;28;20449;-52